createdAt,value
2022-10-03T00:00:13.330Z,4.20
2022-10-03T00:01:18.853Z,3.40
2022-10-03T00:02:12.673Z,3.60
2022-10-03T00:03:22.789Z,4.18
2022-10-03T00:04:07.289Z,3.80
2022-10-03T00:05:11.288Z,4.05
2022-10-03T00:05:54.350Z,4.07
2022-10-03T00:06:44.951Z,3.80
2022-10-03T00:07:38.613Z,4.18
2022-10-03T00:08:27.888Z,4.38
2022-10-03T00:09:21.332Z,4.28
2022-10-03T00:10:05.852Z,4.45
2022-10-03T00:10:52.851Z,4.43
2022-10-03T00:11:35.894Z,4.90
2022-10-03T00:12:17.644Z,4.40
2022-10-03T00:13:03.733Z,4.75
2022-10-03T00:13:44.562Z,4.65
2022-10-03T00:14:26.513Z,4.53
2022-10-03T00:15:04.431Z,4.80
2022-10-03T00:15:44.404Z,5.15
2022-10-03T00:16:20.377Z,4.32
2022-10-03T00:17:02.109Z,5.30
2022-10-03T00:17:45.801Z,5.03
2022-10-03T00:18:35.861Z,4.70
2022-10-03T00:19:21.312Z,4.50
2022-10-03T00:20:03.069Z,4.80
2022-10-03T00:20:48.997Z,5.20
2022-10-03T00:21:35.281Z,4.60
2022-10-03T00:22:18.410Z,5.55
2022-10-03T00:22:55.724Z,3.55
2022-10-03T00:23:37.996Z,4.85
2022-10-03T00:24:22.964Z,4.70
2022-10-03T00:25:12.470Z,4.63
2022-10-03T00:25:56.766Z,4.97
2022-10-03T00:26:37.101Z,4.70
2022-10-03T00:27:15.106Z,4.57
2022-10-03T00:27:52.826Z,5.05
2022-10-03T00:28:50.126Z,5.03
2022-10-03T00:29:47.288Z,5.45
2022-10-03T00:30:21.924Z,5.10
2022-10-03T00:31:09.231Z,4.85
2022-10-03T00:31:52.489Z,4.70
2022-10-03T00:32:38.983Z,5.13
2022-10-03T00:33:19.190Z,5.38
2022-10-03T00:34:03.144Z,5.10
2022-10-03T00:34:53.707Z,4.38
2022-10-03T00:35:49.077Z,6.32
2022-10-03T00:36:31.828Z,5.13
2022-10-03T00:37:26.604Z,5.00
2022-10-03T00:38:20.676Z,5.05
2022-10-03T00:39:24.521Z,5.00
2022-10-03T00:40:33.850Z,4.90
2022-10-03T00:41:19.965Z,4.63
2022-10-03T00:42:32.806Z,5.45
2022-10-03T00:43:41.333Z,6.13
2022-10-03T00:44:51.738Z,5.25
2022-10-03T00:45:56.725Z,4.90
2022-10-03T00:47:11.385Z,4.72
2022-10-03T00:48:02.030Z,5.07
2022-10-03T00:49:13.657Z,5.70
2022-10-03T00:50:19.487Z,5.55
2022-10-03T00:51:20.217Z,5.35
2022-10-03T00:52:03.142Z,5.10
2022-10-03T00:52:48.268Z,6.57
2022-10-03T00:53:44.197Z,5.40
2022-10-03T00:54:45.320Z,5.65
2022-10-03T00:55:28.332Z,5.70
2022-10-03T00:56:21.562Z,6.50
2022-10-03T00:57:09.514Z,6.10
2022-10-03T00:57:58.850Z,5.65
2022-10-03T00:58:45.968Z,6.53
2022-10-03T00:59:34.616Z,5.65
2022-10-03T01:00:17.406Z,5.55
2022-10-03T01:00:52.232Z,6.47
2022-10-03T01:01:34.250Z,5.95
2022-10-03T01:02:30.615Z,6.72
2022-10-03T01:03:19.319Z,6.05
2022-10-03T01:04:06.312Z,8.15
2022-10-03T01:04:53.268Z,6.30
2022-10-03T01:05:38.129Z,5.93
2022-10-03T01:06:28.762Z,6.03
2022-10-03T01:07:13.345Z,6.57
2022-10-03T01:08:12.863Z,5.82
2022-10-03T01:09:29.208Z,6.20
2022-10-03T01:10:10.029Z,6.22
2022-10-03T01:10:52.789Z,6.97
2022-10-03T01:11:38.716Z,6.03
2022-10-03T01:12:35.218Z,6.80
2022-10-03T01:13:23.483Z,6.20
2022-10-03T01:14:08.053Z,6.18
2022-10-03T01:14:54.379Z,6.10
2022-10-03T01:15:37.776Z,6.25
2022-10-03T01:16:18.993Z,7.00
2022-10-03T01:17:02.472Z,6.72
2022-10-03T01:17:48.358Z,7.05
2022-10-03T01:18:32.491Z,7.15
2022-10-03T01:19:22.988Z,6.95
2022-10-03T01:20:15.187Z,7.00
2022-10-03T01:20:58.194Z,6.65
2022-10-03T01:21:41.708Z,7.03
2022-10-03T01:22:38.682Z,6.88
2022-10-03T01:23:58.106Z,7.00
2022-10-03T01:24:50.691Z,6.43
2022-10-03T01:25:38.529Z,7.60
2022-10-03T01:26:30.781Z,7.53
2022-10-03T01:27:04.959Z,7.93
2022-10-03T01:28:00.293Z,7.53
2022-10-03T01:29:04.744Z,6.82
2022-10-03T01:30:05.747Z,6.88
2022-10-03T01:30:42.346Z,6.60
2022-10-03T01:31:17.826Z,7.28
2022-10-03T01:31:58.116Z,6.85
2022-10-03T01:32:38.548Z,6.90
2022-10-03T01:33:15.963Z,7.05
2022-10-03T01:33:54.824Z,7.32
2022-10-03T01:34:32.349Z,7.80
2022-10-03T01:35:17.846Z,7.63
2022-10-03T01:35:55.078Z,7.18
2022-10-03T01:36:32.741Z,7.25
2022-10-03T01:37:11.595Z,7.70
2022-10-03T01:37:53.519Z,8.35
2022-10-03T01:38:29.807Z,9.35
2022-10-03T01:39:09.309Z,7.38
2022-10-03T01:39:51.721Z,7.38
2022-10-03T01:40:29.488Z,6.97
2022-10-03T01:41:07.841Z,7.85
2022-10-03T01:41:49.789Z,8.15
2022-10-03T01:42:40.885Z,7.10
2022-10-03T01:43:21.034Z,7.85
2022-10-03T01:44:00.672Z,7.30
2022-10-03T01:44:45.425Z,8.15
2022-10-03T01:45:29.042Z,8.18
2022-10-03T01:46:09.379Z,7.80
2022-10-03T01:46:48.135Z,8.18
2022-10-03T01:47:24.578Z,7.65
2022-10-03T01:48:02.094Z,7.35
2022-10-03T01:48:43.870Z,7.80
2022-10-03T01:49:21.615Z,7.10
2022-10-03T01:49:59.980Z,8.38
2022-10-03T01:50:38.888Z,8.82
2022-10-03T01:51:13.866Z,7.93
2022-10-03T01:51:55.097Z,7.72
2022-10-03T01:52:40.284Z,8.05
2022-10-03T01:53:19.642Z,8.40
2022-10-03T01:54:14.844Z,7.35
2022-10-03T01:54:54.341Z,7.55
2022-10-03T01:55:34.893Z,9.15
2022-10-03T01:56:15.221Z,7.90
2022-10-03T01:56:55.313Z,7.10
2022-10-03T01:57:36.424Z,7.65
2022-10-03T01:58:12.205Z,7.70
2022-10-03T01:58:52.168Z,8.65
2022-10-03T01:59:38.409Z,8.55
2022-10-03T02:00:13.797Z,8.85
2022-10-03T02:00:52.930Z,8.82
2022-10-03T02:01:32.397Z,7.70
2022-10-03T02:02:12.458Z,7.55
2022-10-03T02:02:49.842Z,7.80
2022-10-03T02:03:27.854Z,8.65
2022-10-03T02:04:06.732Z,8.15
2022-10-03T02:04:45.963Z,8.18
2022-10-03T02:05:25.950Z,8.68
2022-10-03T02:06:06.634Z,8.07
2022-10-03T02:06:47.957Z,8.95
2022-10-03T02:07:30.075Z,8.23
2022-10-03T02:08:05.886Z,7.57
2022-10-03T02:08:50.038Z,8.30
2022-10-03T02:09:31.870Z,7.22
2022-10-03T02:10:13.192Z,8.23
2022-10-03T02:10:53.156Z,7.45
2022-10-03T02:11:31.980Z,8.25
2022-10-03T02:12:09.793Z,8.40
2022-10-03T02:12:51.599Z,8.85
2022-10-03T02:13:27.487Z,8.15
2022-10-03T02:14:15.137Z,8.30
2022-10-03T02:14:54.990Z,7.88
2022-10-03T02:15:31.096Z,8.00
2022-10-03T02:16:11.119Z,8.00
2022-10-03T02:16:45.170Z,7.72
2022-10-03T02:17:28.312Z,9.55
2022-10-03T02:18:12.830Z,7.85
2022-10-03T02:18:54.740Z,7.03
2022-10-03T02:19:30.571Z,7.63
2022-10-03T02:20:08.893Z,7.72
2022-10-03T02:20:47.447Z,7.78
2022-10-03T02:21:21.633Z,9.40
2022-10-03T02:21:56.826Z,9.15
2022-10-03T02:22:33.141Z,8.73
2022-10-03T02:23:24.602Z,9.15
2022-10-03T02:24:18.790Z,8.02
2022-10-03T02:24:56.800Z,8.30
2022-10-03T02:25:51.537Z,7.43
2022-10-03T02:26:58.667Z,8.30
2022-10-03T02:27:54.996Z,7.53
2022-10-03T02:28:59.008Z,7.65
2022-10-03T02:30:08.448Z,8.25
2022-10-03T02:30:57.546Z,8.75
2022-10-03T02:31:59.334Z,7.85
2022-10-03T02:33:02.894Z,8.10
2022-10-03T02:34:01.909Z,7.55
2022-10-03T02:35:05.075Z,7.70
2022-10-03T02:35:56.466Z,7.10
2022-10-03T02:37:23.442Z,8.07
2022-10-03T02:38:13.875Z,7.90
2022-10-03T02:39:08.555Z,7.63
2022-10-03T02:40:25.294Z,8.13
2022-10-03T02:41:18.585Z,7.82
2022-10-03T02:42:17.999Z,7.93
2022-10-03T02:43:38.170Z,7.50
2022-10-03T02:44:42.311Z,7.95
2022-10-03T02:45:55.410Z,8.30
2022-10-03T02:47:03.446Z,7.55
2022-10-03T02:48:39.419Z,7.65
2022-10-03T02:49:40.206Z,7.78
2022-10-03T02:50:48.576Z,8.35
2022-10-03T02:52:05.518Z,8.60
2022-10-03T02:53:16.080Z,7.32
2022-10-03T02:54:20.962Z,8.25
2022-10-03T02:55:38.386Z,7.75
2022-10-03T02:56:34.560Z,7.97
2022-10-03T02:57:42.124Z,8.13
2022-10-03T02:58:42.178Z,7.82
2022-10-03T02:59:45.649Z,7.32
2022-10-03T03:00:20.900Z,8.77
2022-10-03T03:01:24.764Z,7.80
2022-10-03T03:02:32.689Z,7.97
2022-10-03T03:03:42.530Z,8.05
2022-10-03T03:04:56.497Z,7.80
2022-10-03T03:05:44.969Z,9.18
2022-10-03T03:06:43.766Z,8.63
2022-10-03T03:07:31.630Z,9.02
2022-10-03T03:08:37.696Z,7.50
2022-10-03T03:09:54.325Z,8.15
2022-10-03T03:11:06.553Z,7.63
2022-10-03T03:12:03.032Z,7.47
2022-10-03T03:13:07.390Z,8.30
2022-10-03T03:14:00.121Z,7.97
2022-10-03T03:15:18.924Z,9.13
2022-10-03T03:16:33.445Z,8.05
2022-10-03T03:17:24.356Z,7.78
2022-10-03T03:18:04.682Z,7.45
2022-10-03T03:18:39.888Z,8.57
2022-10-03T03:19:19.664Z,7.85
2022-10-03T03:20:10.641Z,8.32
2022-10-03T03:21:02.581Z,7.95
2022-10-03T03:21:42.320Z,8.82
2022-10-03T03:22:32.231Z,8.02
2022-10-03T03:23:19.913Z,8.20
2022-10-03T03:24:10.666Z,9.02
2022-10-03T03:25:01.156Z,9.30
2022-10-03T03:25:47.426Z,8.43
2022-10-03T03:26:54.189Z,8.05
2022-10-03T03:27:47.696Z,8.18
2022-10-03T03:28:33.265Z,8.63
2022-10-03T03:29:14.744Z,8.77
2022-10-03T03:29:57.679Z,8.48
2022-10-03T03:30:36.819Z,8.90
2022-10-03T03:31:12.599Z,9.20
2022-10-03T03:31:51.690Z,9.25
2022-10-03T03:32:42.841Z,7.80
2022-10-03T03:33:26.385Z,7.97
2022-10-03T03:34:07.429Z,8.70
2022-10-03T03:34:50.117Z,9.38
2022-10-03T03:35:33.753Z,9.35
2022-10-03T03:36:13.691Z,9.50
2022-10-03T03:36:54.191Z,10.15
2022-10-03T03:37:34.474Z,9.23
2022-10-03T03:38:18.231Z,9.45
2022-10-03T03:38:59.949Z,10.18
2022-10-03T03:39:54.508Z,10.23
2022-10-03T03:40:39.725Z,9.13
2022-10-03T03:41:23.540Z,9.35
2022-10-03T03:42:20.849Z,9.30
2022-10-03T03:43:24.768Z,9.35
2022-10-03T03:44:13.309Z,9.07
2022-10-03T03:45:02.385Z,9.98
2022-10-03T03:45:46.467Z,9.77
2022-10-03T03:46:33.088Z,10.50
2022-10-03T03:47:28.412Z,8.88
2022-10-03T03:48:25.597Z,9.73
2022-10-03T03:49:08.038Z,9.32
2022-10-03T03:49:57.910Z,10.75
2022-10-03T03:50:39.629Z,10.07
2022-10-03T03:51:22.886Z,9.13
2022-10-03T03:52:10.385Z,11.27
2022-10-03T03:52:56.937Z,11.02
2022-10-03T03:53:54.973Z,9.63
2022-10-03T03:54:55.393Z,10.52
2022-10-03T03:55:48.550Z,9.00
2022-10-03T03:56:43.400Z,10.00
2022-10-03T03:57:28.958Z,9.60
2022-10-03T03:58:13.651Z,11.25
2022-10-03T03:58:54.703Z,10.18
2022-10-03T03:59:41.754Z,10.05
2022-10-03T04:00:17.581Z,9.40
2022-10-03T04:01:03.852Z,10.35
2022-10-03T04:01:56.608Z,9.25
2022-10-03T04:02:53.338Z,10.60
2022-10-03T04:03:38.721Z,8.93
2022-10-03T04:04:22.822Z,8.90
2022-10-03T04:05:08.301Z,8.90
2022-10-03T04:05:56.825Z,10.80
2022-10-03T04:06:41.670Z,9.00
2022-10-03T04:07:27.311Z,9.65
2022-10-03T04:08:23.815Z,9.35
2022-10-03T04:09:16.899Z,9.15
2022-10-03T04:10:11.376Z,9.32
2022-10-03T04:10:54.325Z,9.65
2022-10-03T04:11:33.154Z,9.75
2022-10-03T04:12:15.544Z,9.15
2022-10-03T04:13:28.986Z,9.70
2022-10-03T04:14:24.191Z,9.48
2022-10-03T04:15:11.186Z,8.95
2022-10-03T04:16:01.159Z,9.05
2022-10-03T04:17:10.096Z,9.40
2022-10-03T04:18:17.806Z,9.45
2022-10-03T04:19:03.455Z,10.07
2022-10-03T04:19:48.646Z,9.23
2022-10-03T04:20:33.371Z,10.52
2022-10-03T04:21:42.173Z,9.20
2022-10-03T04:22:31.005Z,9.68
2022-10-03T04:23:21.416Z,8.55
2022-10-03T04:24:19.676Z,9.02
2022-10-03T04:25:17.954Z,8.77
2022-10-03T04:26:10.839Z,9.85
2022-10-03T04:26:59.542Z,9.20
2022-10-03T04:27:53.509Z,10.77
2022-10-03T04:28:44.707Z,10.00
2022-10-03T04:29:41.596Z,9.73
2022-10-03T04:30:17.597Z,9.00
2022-10-03T04:31:02.481Z,10.70
2022-10-03T04:31:44.316Z,10.40
2022-10-03T04:32:41.523Z,10.40
2022-10-03T04:33:29.543Z,9.48
2022-10-03T04:34:21.578Z,10.27
2022-10-03T04:35:25.736Z,9.35
2022-10-03T04:36:23.340Z,8.25
2022-10-03T04:37:28.338Z,8.82
2022-10-03T04:38:12.007Z,8.75
2022-10-03T04:38:51.665Z,9.35
2022-10-03T04:39:33.400Z,9.43
2022-10-03T04:40:25.697Z,11.25
2022-10-03T04:41:05.900Z,9.07
2022-10-03T04:41:45.584Z,9.45
2022-10-03T04:42:40.897Z,9.90
2022-10-03T04:43:20.042Z,9.18
2022-10-03T04:44:00.201Z,10.35
2022-10-03T04:44:44.233Z,9.48
2022-10-03T04:45:31.570Z,11.15
2022-10-03T04:46:22.974Z,9.35
2022-10-03T04:46:58.702Z,10.25
2022-10-03T04:47:39.283Z,11.05
2022-10-03T04:48:16.600Z,9.07
2022-10-03T04:48:56.384Z,9.80
2022-10-03T04:49:36.861Z,10.52
2022-10-03T04:50:24.598Z,10.68
2022-10-03T04:51:07.321Z,10.00
2022-10-03T04:51:55.564Z,9.68
2022-10-03T04:52:39.193Z,10.10
2022-10-03T04:53:22.956Z,9.88
2022-10-03T04:54:02.248Z,9.02
2022-10-03T04:54:48.169Z,9.85
2022-10-03T04:55:28.792Z,9.93
2022-10-03T04:56:14.061Z,10.75
2022-10-03T04:56:53.958Z,8.10
2022-10-03T04:57:35.513Z,9.88
2022-10-03T04:58:18.520Z,9.07
2022-10-03T04:58:56.230Z,9.50
2022-10-03T04:59:46.235Z,9.75
2022-10-03T05:00:24.187Z,9.95
2022-10-03T05:01:06.434Z,10.13
2022-10-03T05:01:50.370Z,9.50
2022-10-03T05:02:47.718Z,10.05
2022-10-03T05:03:36.809Z,9.27
2022-10-03T05:04:22.059Z,9.60
2022-10-03T05:05:27.873Z,9.40
2022-10-03T05:06:06.008Z,9.52
2022-10-03T05:06:48.950Z,10.43
2022-10-03T05:07:29.006Z,9.48
2022-10-03T05:08:12.695Z,9.32
2022-10-03T05:08:52.742Z,8.55
2022-10-03T05:09:32.466Z,8.75
2022-10-03T05:10:23.995Z,10.00
2022-10-03T05:11:12.244Z,9.40
2022-10-03T05:12:00.672Z,11.77
2022-10-03T05:12:44.317Z,9.40
2022-10-03T05:13:22.869Z,8.90
2022-10-03T05:14:03.503Z,8.60
2022-10-03T05:14:52.136Z,10.73
2022-10-03T05:15:30.976Z,10.13
2022-10-03T05:16:14.656Z,9.88
2022-10-03T05:16:54.742Z,8.23
2022-10-03T05:17:37.301Z,8.98
2022-10-03T05:18:19.780Z,8.73
2022-10-03T05:19:01.807Z,9.02
2022-10-03T05:20:05.025Z,9.07
2022-10-03T05:20:47.342Z,8.95
2022-10-03T05:21:32.326Z,8.65
2022-10-03T05:22:17.060Z,8.90
2022-10-03T05:22:57.982Z,9.10
2022-10-03T05:23:45.784Z,8.40
2022-10-03T05:24:27.547Z,8.50
2022-10-03T05:25:11.761Z,8.57
2022-10-03T05:25:53.818Z,8.95
2022-10-03T05:26:50.381Z,10.40
2022-10-03T05:27:29.449Z,8.85
2022-10-03T05:28:10.933Z,8.90
2022-10-03T05:28:52.949Z,9.13
2022-10-03T05:29:32.243Z,9.75
2022-10-03T05:30:09.095Z,10.02
2022-10-03T05:30:46.052Z,8.98
2022-10-03T05:31:33.304Z,9.38
2022-10-03T05:32:17.822Z,9.20
2022-10-03T05:32:56.561Z,8.45
2022-10-03T05:33:39.428Z,8.40
2022-10-03T05:34:21.922Z,8.75
2022-10-03T05:35:18.518Z,8.73
2022-10-03T05:36:10.713Z,9.27
2022-10-03T05:36:58.816Z,8.93
2022-10-03T05:37:51.069Z,9.95
2022-10-03T05:39:21.353Z,9.27
2022-10-03T05:39:58.628Z,7.70
2022-10-03T05:40:35.054Z,8.75
2022-10-03T05:41:23.831Z,8.48
2022-10-03T05:42:23.253Z,8.60
2022-10-03T05:43:05.763Z,8.38
2022-10-03T05:43:50.197Z,9.15
2022-10-03T05:44:39.088Z,8.57
2022-10-03T05:45:24.315Z,8.52
2022-10-03T05:46:09.053Z,8.02
2022-10-03T05:46:56.821Z,9.18
2022-10-03T05:47:49.252Z,8.93
2022-10-03T05:48:33.136Z,9.93
2022-10-03T05:49:28.479Z,8.55
2022-10-03T05:50:28.846Z,8.60
2022-10-03T05:51:33.826Z,8.50
2022-10-03T05:52:34.388Z,8.35
2022-10-03T05:53:24.732Z,7.50
2022-10-03T05:54:57.289Z,8.85
2022-10-03T05:55:40.791Z,8.30
2022-10-03T05:56:27.361Z,8.20
2022-10-03T05:57:18.654Z,8.52
2022-10-03T05:58:14.965Z,9.13
2022-10-03T05:59:20.689Z,8.52
2022-10-03T06:00:14.886Z,7.80
2022-10-03T06:01:13.150Z,8.73
2022-10-03T06:02:15.130Z,15.98
2022-10-03T06:03:00.249Z,14.70
2022-10-03T06:04:05.071Z,9.50
2022-10-03T06:05:14.320Z,8.88
2022-10-03T06:06:17.963Z,9.45
2022-10-03T06:07:04.906Z,8.00
2022-10-03T06:07:52.632Z,7.63
2022-10-03T06:08:48.394Z,8.20
2022-10-03T06:09:57.972Z,8.20
2022-10-03T06:10:51.823Z,7.55
2022-10-03T06:11:55.841Z,8.60
2022-10-03T06:12:34.258Z,8.20
2022-10-03T06:13:26.651Z,8.15
2022-10-03T06:14:28.917Z,7.82
2022-10-03T06:15:25.624Z,8.27
2022-10-03T06:16:06.628Z,7.60
2022-10-03T06:16:49.273Z,8.05
2022-10-03T06:17:53.656Z,8.55
2022-10-03T06:18:58.650Z,6.90
2022-10-03T06:19:48.285Z,7.90
2022-10-03T06:21:00.995Z,8.60
2022-10-03T06:22:10.282Z,6.38
2022-10-03T06:23:21.360Z,7.85
2022-10-03T06:24:21.347Z,8.18
2022-10-03T06:25:31.400Z,7.70
2022-10-03T06:26:43.594Z,7.70
2022-10-03T06:28:02.372Z,9.93
2022-10-03T06:29:04.032Z,10.70
2022-10-03T06:30:07.633Z,9.10
2022-10-03T06:31:00.672Z,7.28
2022-10-03T06:32:16.563Z,8.27
2022-10-03T06:33:17.332Z,8.10
2022-10-03T06:34:17.261Z,8.20
2022-10-03T06:35:24.773Z,7.30
2022-10-03T06:36:22.617Z,8.35
2022-10-03T06:37:51.177Z,8.07
2022-10-03T06:38:56.432Z,8.15
2022-10-03T06:39:55.694Z,7.32
2022-10-03T06:41:04.263Z,8.73
2022-10-03T06:42:25.828Z,7.88
2022-10-03T06:43:26.036Z,8.27
2022-10-03T06:44:25.227Z,7.32
2022-10-03T06:45:40.719Z,8.75
2022-10-03T06:46:52.550Z,7.70
2022-10-03T06:47:38.658Z,7.35
2022-10-03T06:48:36.158Z,8.45
2022-10-03T06:49:31.152Z,8.75
2022-10-03T06:50:38.715Z,7.95
2022-10-03T06:51:45.024Z,7.35
2022-10-03T06:52:49.184Z,7.72
2022-10-03T06:53:44.471Z,7.57
2022-10-03T06:55:05.335Z,8.60
2022-10-03T06:56:04.609Z,7.22
2022-10-03T06:57:06.456Z,8.02
2022-10-03T06:58:17.114Z,8.07
2022-10-03T06:59:10.517Z,9.45
2022-10-03T07:00:09.113Z,9.90
2022-10-03T07:00:55.883Z,7.20
2022-10-03T07:02:04.732Z,9.23
2022-10-03T07:03:24.444Z,7.90
2022-10-03T07:04:46.063Z,8.27
2022-10-03T07:06:03.537Z,7.65
2022-10-03T07:07:08.810Z,9.20
2022-10-03T07:08:29.729Z,8.05
2022-10-03T07:09:53.648Z,9.85
2022-10-03T07:10:42.845Z,9.38
2022-10-03T07:11:34.549Z,8.85
2022-10-03T07:12:47.361Z,7.80
2022-10-03T07:14:09.697Z,7.15
2022-10-03T07:15:15.901Z,8.00
2022-10-03T07:16:26.892Z,8.02
2022-10-03T07:17:18.201Z,8.10
2022-10-03T07:18:20.402Z,7.75
2022-10-03T07:19:15.101Z,6.80
2022-10-03T07:20:26.879Z,8.48
2022-10-03T07:21:41.667Z,7.68
2022-10-03T07:22:50.427Z,7.38
2022-10-03T07:24:03.322Z,8.88
2022-10-03T07:25:19.074Z,7.88
2022-10-03T07:26:21.647Z,8.80
2022-10-03T07:27:24.830Z,9.50
2022-10-03T07:28:22.917Z,8.70
2022-10-03T07:29:23.361Z,9.02
2022-10-03T07:30:10.545Z,8.43
2022-10-03T07:31:02.527Z,8.45
2022-10-03T07:31:45.875Z,8.73
2022-10-03T07:32:42.308Z,8.18
2022-10-03T07:33:58.724Z,10.82
2022-10-03T07:35:03.161Z,9.23
2022-10-03T07:36:02.172Z,9.07
2022-10-03T07:37:13.640Z,8.32
2022-10-03T07:38:43.516Z,7.95
2022-10-03T07:39:56.518Z,8.82
2022-10-03T07:40:56.770Z,9.80
2022-10-03T07:42:00.614Z,9.02
2022-10-03T07:43:12.732Z,9.70
2022-10-03T07:44:15.993Z,8.13
2022-10-03T07:45:20.377Z,8.20
2022-10-03T07:46:20.878Z,8.57
2022-10-03T07:47:39.879Z,9.13
2022-10-03T07:49:01.269Z,8.35
2022-10-03T07:49:55.400Z,9.50
2022-10-03T07:50:51.766Z,8.48
2022-10-03T07:51:32.012Z,8.48
2022-10-03T07:52:43.637Z,7.53
2022-10-03T07:53:43.287Z,8.82
2022-10-03T07:54:51.148Z,8.60
2022-10-03T07:55:33.558Z,8.23
2022-10-03T07:56:25.345Z,8.25
2022-10-03T07:57:11.973Z,9.07
2022-10-03T07:58:18.294Z,9.50
2022-10-03T07:59:13.593Z,8.80
2022-10-03T08:00:05.473Z,8.00
2022-10-03T08:00:55.261Z,8.15
2022-10-03T08:01:47.364Z,8.90
2022-10-03T08:02:50.489Z,8.50
2022-10-03T08:04:08.345Z,8.73
2022-10-03T08:05:14.441Z,8.00
2022-10-03T08:06:26.524Z,9.55
2022-10-03T08:07:11.680Z,9.20
2022-10-03T08:08:09.289Z,9.13
2022-10-03T08:09:05.391Z,9.95
2022-10-03T08:09:59.171Z,8.60
2022-10-03T08:11:00.329Z,8.20
2022-10-03T08:12:18.581Z,7.95
2022-10-03T08:13:11.080Z,9.10
2022-10-03T08:14:13.154Z,8.65
2022-10-03T08:14:56.916Z,8.82
2022-10-03T08:15:36.098Z,8.13
2022-10-03T08:16:23.939Z,8.70
2022-10-03T08:17:49.748Z,9.02
2022-10-03T08:18:57.840Z,9.75
2022-10-03T08:19:56.001Z,7.25
2022-10-03T08:20:48.341Z,8.77
2022-10-03T08:21:30.728Z,8.65
2022-10-03T08:22:11.665Z,8.23
2022-10-03T08:22:59.329Z,8.35
2022-10-03T08:24:21.677Z,7.43
2022-10-03T08:25:27.021Z,8.35
2022-10-03T08:26:13.683Z,9.32
2022-10-03T08:27:13.748Z,7.70
2022-10-03T08:28:24.237Z,9.55
2022-10-03T08:29:19.856Z,8.32
2022-10-03T08:30:18.793Z,9.10
2022-10-03T08:31:17.565Z,9.20
2022-10-03T08:32:21.193Z,9.10
2022-10-03T08:33:21.780Z,8.77
2022-10-03T08:34:23.329Z,9.02
2022-10-03T08:35:12.901Z,9.73
2022-10-03T08:36:34.408Z,9.73
2022-10-03T08:37:38.632Z,9.95
2022-10-03T08:38:50.957Z,9.52
2022-10-03T08:39:42.177Z,8.85
2022-10-03T08:40:54.288Z,9.10
2022-10-03T08:42:17.526Z,9.50
2022-10-03T08:43:15.393Z,10.60
2022-10-03T08:44:25.030Z,10.20
2022-10-03T08:45:23.621Z,10.07
2022-10-03T08:46:07.053Z,9.40
2022-10-03T08:47:11.300Z,10.43
2022-10-03T08:48:20.777Z,10.10
2022-10-03T08:49:02.506Z,9.57
2022-10-03T08:50:05.670Z,9.75
2022-10-03T08:51:04.201Z,9.10
2022-10-03T08:51:58.790Z,10.50
2022-10-03T08:52:43.423Z,9.60
2022-10-03T08:54:02.590Z,8.77
2022-10-03T08:55:03.236Z,9.80
2022-10-03T08:55:47.818Z,9.63
2022-10-03T08:56:25.454Z,9.55
2022-10-03T08:57:14.682Z,9.82
2022-10-03T08:58:20.426Z,10.48
2022-10-03T08:59:46.964Z,10.60
2022-10-03T09:00:21.667Z,10.45
2022-10-03T09:01:30.171Z,10.32
2022-10-03T09:02:43.295Z,11.18
2022-10-03T09:03:44.606Z,9.48
2022-10-03T09:04:54.740Z,9.38
2022-10-03T09:05:46.466Z,10.20
2022-10-03T09:07:05.138Z,10.88
2022-10-03T09:08:18.165Z,8.98
2022-10-03T09:09:14.883Z,9.48
2022-10-03T09:10:19.281Z,10.35
2022-10-03T09:11:17.065Z,9.30
2022-10-03T09:12:25.837Z,8.60
2022-10-03T09:13:14.274Z,8.85
2022-10-03T09:14:20.312Z,8.80
2022-10-03T09:15:22.347Z,8.55
2022-10-03T09:16:25.990Z,9.40
2022-10-03T09:17:12.074Z,8.43
2022-10-03T09:18:21.600Z,8.52
2022-10-03T09:19:07.127Z,9.15
2022-10-03T09:20:04.951Z,9.05
2022-10-03T09:21:06.946Z,10.25
2022-10-03T09:22:06.119Z,9.38
2022-10-03T09:23:21.729Z,8.57
2022-10-03T09:24:18.485Z,8.35
2022-10-03T09:25:19.727Z,9.40
2022-10-03T09:26:13.238Z,10.18
2022-10-03T09:27:25.086Z,9.23
2022-10-03T09:28:36.066Z,8.75
2022-10-03T09:29:41.102Z,9.90
2022-10-03T09:30:26.925Z,10.50
2022-10-03T09:31:16.460Z,9.35
2022-10-03T09:32:30.464Z,9.82
2022-10-03T09:33:41.934Z,7.72
2022-10-03T09:34:39.043Z,9.25
2022-10-03T09:35:50.584Z,8.45
2022-10-03T09:36:55.931Z,8.60
2022-10-03T09:38:03.931Z,8.48
2022-10-03T09:38:57.319Z,8.50
2022-10-03T09:40:07.610Z,8.82
2022-10-03T09:41:15.892Z,8.20
2022-10-03T09:42:25.594Z,9.82
2022-10-03T09:43:24.997Z,8.25
2022-10-03T09:44:23.777Z,8.02
2022-10-03T09:45:32.339Z,9.25
2022-10-03T09:46:31.214Z,7.18
2022-10-03T09:47:35.043Z,7.05
2022-10-03T09:48:27.481Z,7.78
2022-10-03T09:49:27.873Z,7.75
2022-10-03T09:50:43.218Z,7.95
2022-10-03T09:51:34.131Z,7.38
2022-10-03T09:52:32.918Z,7.68
2022-10-03T09:53:47.635Z,7.60
2022-10-03T09:54:54.085Z,7.97
2022-10-03T09:55:41.571Z,7.70
2022-10-03T09:56:41.224Z,7.70
2022-10-03T09:57:40.121Z,6.97
2022-10-03T09:58:35.933Z,7.47
2022-10-03T09:59:30.743Z,6.93
2022-10-03T10:00:16.333Z,6.55
2022-10-03T10:01:16.245Z,7.60
2022-10-03T10:01:57.268Z,7.25
2022-10-03T10:03:09.178Z,8.20
2022-10-03T10:04:12.985Z,6.45
2022-10-03T10:05:02.295Z,7.43
2022-10-03T10:06:03.543Z,9.00
2022-10-03T10:06:48.675Z,6.50
2022-10-03T10:08:00.245Z,6.10
2022-10-03T10:09:08.156Z,6.28
2022-10-03T10:10:18.470Z,6.15
2022-10-03T10:11:17.930Z,7.00
2022-10-03T10:12:19.073Z,6.60
2022-10-03T10:13:20.903Z,6.40
2022-10-03T10:14:30.300Z,6.30
2022-10-03T10:15:28.172Z,6.10
2022-10-03T10:16:16.817Z,6.35
2022-10-03T10:17:37.266Z,7.28
2022-10-03T10:18:35.764Z,4.93
2022-10-03T10:19:40.984Z,5.72
2022-10-03T10:20:30.560Z,5.88
2022-10-03T10:21:49.918Z,6.13
2022-10-03T10:22:53.736Z,5.85
2022-10-03T10:23:47.785Z,5.57
2022-10-03T10:24:58.749Z,5.15
2022-10-03T10:25:50.061Z,5.82
2022-10-03T10:27:00.579Z,5.50
2022-10-03T10:28:19.286Z,6.18
2022-10-03T10:29:17.880Z,5.22
2022-10-03T10:30:19.770Z,6.03
2022-10-03T10:31:18.767Z,5.72
2022-10-03T10:32:29.304Z,5.65
2022-10-03T10:33:29.761Z,6.10
2022-10-03T10:34:44.209Z,5.38
2022-10-03T10:35:51.955Z,5.80
2022-10-03T10:37:05.665Z,5.07
2022-10-03T10:38:20.921Z,5.22
2022-10-03T10:39:44.569Z,5.57
2022-10-03T10:40:59.781Z,5.85
2022-10-03T10:42:15.898Z,5.50
2022-10-03T10:43:25.066Z,5.22
2022-10-03T10:44:37.456Z,5.05
2022-10-03T10:45:35.836Z,5.55
2022-10-03T10:46:36.685Z,5.40
2022-10-03T10:47:50.910Z,4.75
2022-10-03T10:49:24.074Z,5.35
2022-10-03T10:50:29.607Z,5.45
2022-10-03T10:51:40.546Z,5.60
2022-10-03T10:52:45.648Z,5.18
2022-10-03T10:54:10.164Z,5.80
2022-10-03T10:55:16.929Z,5.75
2022-10-03T10:56:27.644Z,5.30
2022-10-03T10:57:33.139Z,7.03
2022-10-03T10:58:58.002Z,5.60
2022-10-03T11:00:15.112Z,5.15
2022-10-03T11:01:24.867Z,5.15
2022-10-03T11:02:31.947Z,5.10
2022-10-03T11:03:59.281Z,4.97
2022-10-03T11:05:07.021Z,10.35
2022-10-03T11:06:41.696Z,4.70
2022-10-03T11:07:55.877Z,5.53
2022-10-03T11:09:14.430Z,4.43
2022-10-03T11:10:33.652Z,4.28
2022-10-03T11:11:32.792Z,4.05
2022-10-03T11:12:45.659Z,3.88
2022-10-03T11:14:11.613Z,3.75
2022-10-03T11:15:28.269Z,3.67
2022-10-03T11:16:41.610Z,4.30
2022-10-03T11:17:57.661Z,3.80
2022-10-03T11:19:08.134Z,3.35
2022-10-03T11:20:10.142Z,4.85
2022-10-03T11:21:25.810Z,3.50
2022-10-03T11:22:32.168Z,3.97
2022-10-03T11:23:56.112Z,3.85
2022-10-03T11:25:05.141Z,4.35
2022-10-03T11:26:27.750Z,3.65
2022-10-03T11:27:39.592Z,4.45
2022-10-03T11:28:46.879Z,4.43
2022-10-03T11:29:50.625Z,3.88
2022-10-03T11:30:56.881Z,4.22
2022-10-03T11:32:08.240Z,4.60
2022-10-03T11:33:19.749Z,4.38
2022-10-03T11:34:23.596Z,4.22
2022-10-03T11:35:45.180Z,4.78
2022-10-03T11:36:59.050Z,6.43
2022-10-03T11:37:40.785Z,8.48
2022-10-03T11:38:20.269Z,8.25
2022-10-03T11:39:02.922Z,10.60
2022-10-03T11:39:43.394Z,9.60
2022-10-03T11:40:31.211Z,4.70
2022-10-03T11:41:14.341Z,4.30
2022-10-03T11:41:52.311Z,4.20
2022-10-03T11:42:32.817Z,4.18
2022-10-03T11:43:56.379Z,4.85
2022-10-03T11:44:34.736Z,3.30
2022-10-03T11:45:16.829Z,3.50
2022-10-03T11:45:54.364Z,4.13
2022-10-03T11:46:48.102Z,4.07
2022-10-03T11:47:55.031Z,3.90
2022-10-03T11:48:38.914Z,3.35
2022-10-03T11:49:31.323Z,3.53
2022-10-03T11:50:27.232Z,4.00
2022-10-03T11:51:05.355Z,4.13
2022-10-03T11:51:43.005Z,4.20
2022-10-03T11:52:27.909Z,4.50
2022-10-03T11:53:14.798Z,3.33
2022-10-03T11:53:51.014Z,3.65
2022-10-03T11:54:31.545Z,4.15
2022-10-03T11:55:20.646Z,3.97
2022-10-03T11:56:04.482Z,4.00
2022-10-03T11:56:39.964Z,3.70
2022-10-03T11:57:22.125Z,4.00
2022-10-03T11:58:05.879Z,3.40
2022-10-03T11:58:59.712Z,4.13
2022-10-03T12:00:00.028Z,3.50
2022-10-03T12:00:36.193Z,4.03
2022-10-03T12:01:23.673Z,4.20
2022-10-03T12:02:17.594Z,3.95
2022-10-03T12:03:10.712Z,3.55
2022-10-03T12:03:52.436Z,3.70